sensor_id;sensor_type;location;lat;lon;timestamp;pressure;altitude;pressure_sealevel;temperature;humidity
36192;BME280;22233;42.708;23.360;2023-04-04T00:00:07;93994.84;;;10.39;77.27
36192;BME280;22233;42.708;23.360;2023-04-04T00:02:32;93987.63;;;10.31;77.15
36192;BME280;22233;42.708;23.360;2023-04-04T00:04:58;93998.31;;;10.52;76.68
36192;BME280;22233;42.708;23.360;2023-04-04T00:07:23;93997.31;;;10.45;77.92
36192;BME280;22233;42.708;23.360;2023-04-04T00:09:49;94005.47;;;10.45;78.02
36192;BME280;22233;42.708;23.360;2023-04-04T00:12:14;94007.03;;;10.46;77.19
36192;BME280;22233;42.708;23.360;2023-04-04T00:14:40;94003.06;;;10.43;77.55
36192;BME280;22233;42.708;23.360;2023-04-04T00:17:05;94013.16;;;10.43;77.70
36192;BME280;22233;42.708;23.360;2023-04-04T00:19:31;94014.63;;;10.28;77.95
36192;BME280;22233;42.708;23.360;2023-04-04T00:21:56;94015.34;;;10.25;76.97
36192;BME280;22233;42.708;23.360;2023-04-04T00:24:21;94016.38;;;10.32;76.97
36192;BME280;22233;42.708;23.360;2023-04-04T00:26:47;94020.00;;;10.24;77.62
36192;BME280;22233;42.708;23.360;2023-04-04T00:29:12;94008.13;;;10.16;77.82
36192;BME280;22233;42.708;23.360;2023-04-04T00:31:38;94014.09;;;10.22;78.32
36192;BME280;22233;42.708;23.360;2023-04-04T00:34:03;93995.44;;;10.20;78.41
36192;BME280;22233;42.708;23.360;2023-04-04T00:36:29;93998.66;;;10.10;78.47
36192;BME280;22233;42.708;23.360;2023-04-04T00:38:54;94005.16;;;10.22;78.36
36192;BME280;22233;42.708;23.360;2023-04-04T00:41:19;93991.16;;;10.48;78.49
36192;BME280;22233;42.708;23.360;2023-04-04T00:43:45;93985.94;;;10.55;77.68
36192;BME280;22233;42.708;23.360;2023-04-04T00:46:11;93981.41;;;10.59;77.34
36192;BME280;22233;42.708;23.360;2023-04-04T00:48:40;93974.75;;;10.56;77.82
36192;BME280;22233;42.708;23.360;2023-04-04T00:51:06;93966.06;;;10.51;78.24
36192;BME280;22233;42.708;23.360;2023-04-04T00:53:31;93969.94;;;10.66;77.40
36192;BME280;22233;42.708;23.360;2023-04-04T00:55:57;93956.53;;;10.73;76.39
36192;BME280;22233;42.708;23.360;2023-04-04T00:58:23;93951.09;;;10.57;77.38
36192;BME280;22233;42.708;23.360;2023-04-04T01:00:50;93958.09;;;10.74;76.80
36192;BME280;22233;42.708;23.360;2023-04-04T01:03:17;93953.00;;;10.72;77.35
36192;BME280;22233;42.708;23.360;2023-04-04T01:05:42;93940.41;;;10.64;77.08
36192;BME280;22233;42.708;23.360;2023-04-04T01:08:08;93956.97;;;10.59;77.46
36192;BME280;22233;42.708;23.360;2023-04-04T01:10:33;93965.34;;;10.54;76.97
36192;BME280;22233;42.708;23.360;2023-04-04T01:13:00;93969.25;;;10.69;77.20
36192;BME280;22233;42.708;23.360;2023-04-04T01:15:26;93963.44;;;10.54;77.31
36192;BME280;22233;42.708;23.360;2023-04-04T01:17:54;93977.53;;;10.60;77.43
36192;BME280;22233;42.708;23.360;2023-04-04T01:20:24;93968.44;;;10.52;77.88
36192;BME280;22233;42.708;23.360;2023-04-04T01:22:50;93968.94;;;10.58;77.61
36192;BME280;22233;42.708;23.360;2023-04-04T01:25:17;93966.00;;;10.63;77.28
36192;BME280;22233;42.708;23.360;2023-04-04T01:27:43;93979.50;;;10.75;76.86
36192;BME280;22233;42.708;23.360;2023-04-04T01:30:10;93981.97;;;10.81;76.32
36192;BME280;22233;42.708;23.360;2023-04-04T01:32:55;93986.16;;;10.94;77.11
36192;BME280;22233;42.708;23.360;2023-04-04T01:38:35;93984.50;;;10.89;76.91
36192;BME280;22233;42.708;23.360;2023-04-04T01:41:05;93980.09;;;10.12;79.05
36192;BME280;22233;42.708;23.360;2023-04-04T01:43:31;93973.16;;;10.27;78.39
36192;BME280;22233;42.708;23.360;2023-04-04T01:45:58;93976.03;;;10.47;78.94
36192;BME280;22233;42.708;23.360;2023-04-04T01:48:24;93972.59;;;10.50;77.74
36192;BME280;22233;42.708;23.360;2023-04-04T01:50:49;93973.44;;;10.66;77.14
36192;BME280;22233;42.708;23.360;2023-04-04T01:53:15;93972.75;;;10.69;77.85
36192;BME280;22233;42.708;23.360;2023-04-04T01:55:40;93972.31;;;10.67;78.19
36192;BME280;22233;42.708;23.360;2023-04-04T01:58:06;93959.53;;;10.84;76.59
36192;BME280;22233;42.708;23.360;2023-04-04T02:00:32;93962.44;;;10.18;78.83
36192;BME280;22233;42.708;23.360;2023-04-04T02:02:58;93957.81;;;10.19;80.33
36192;BME280;22233;42.708;23.360;2023-04-04T02:05:24;93944.41;;;10.38;78.88
36192;BME280;22233;42.708;23.360;2023-04-04T02:07:50;93945.56;;;10.53;78.82
36192;BME280;22233;42.708;23.360;2023-04-04T02:10:16;93946.34;;;10.54;78.49
36192;BME280;22233;42.708;23.360;2023-04-04T02:12:41;93955.03;;;10.59;78.37
36192;BME280;22233;42.708;23.360;2023-04-04T02:15:07;93953.03;;;10.56;77.96
36192;BME280;22233;42.708;23.360;2023-04-04T02:17:32;93938.28;;;10.42;78.30
36192;BME280;22233;42.708;23.360;2023-04-04T02:19:59;93938.38;;;10.17;78.30
36192;BME280;22233;42.708;23.360;2023-04-04T02:22:24;93942.72;;;10.34;77.79
36192;BME280;22233;42.708;23.360;2023-04-04T02:24:49;93934.22;;;10.35;78.72
36192;BME280;22233;42.708;23.360;2023-04-04T02:27:15;93952.47;;;10.51;78.35
36192;BME280;22233;42.708;23.360;2023-04-04T02:29:40;93942.50;;;10.55;78.57
36192;BME280;22233;42.708;23.360;2023-04-04T02:32:06;93927.06;;;10.43;77.90
36192;BME280;22233;42.708;23.360;2023-04-04T02:34:31;93942.75;;;10.50;78.48
36192;BME280;22233;42.708;23.360;2023-04-04T02:36:57;93929.00;;;10.43;78.58
36192;BME280;22233;42.708;23.360;2023-04-04T02:39:22;93925.53;;;10.30;79.70
36192;BME280;22233;42.708;23.360;2023-04-04T02:41:48;93926.78;;;10.32;78.10
36192;BME280;22233;42.708;23.360;2023-04-04T02:44:13;93926.97;;;10.39;78.03
36192;BME280;22233;42.708;23.360;2023-04-04T02:46:39;93932.78;;;10.26;78.42
36192;BME280;22233;42.708;23.360;2023-04-04T02:49:04;93945.97;;;10.11;78.56
36192;BME280;22233;42.708;23.360;2023-04-04T02:51:30;93951.69;;;9.82;79.84
36192;BME280;22233;42.708;23.360;2023-04-04T02:53:57;93954.66;;;10.17;78.63
36192;BME280;22233;42.708;23.360;2023-04-04T02:56:23;93932.16;;;10.16;77.73
36192;BME280;22233;42.708;23.360;2023-04-04T02:58:48;93942.38;;;10.35;77.88
36192;BME280;22233;42.708;23.360;2023-04-04T03:01:14;93958.97;;;10.06;78.34
36192;BME280;22233;42.708;23.360;2023-04-04T03:03:39;93939.75;;;10.39;77.54
36192;BME280;22233;42.708;23.360;2023-04-04T03:06:05;93934.94;;;10.32;77.55
36192;BME280;22233;42.708;23.360;2023-04-04T03:08:30;93935.53;;;10.13;78.82
36192;BME280;22233;42.708;23.360;2023-04-04T03:10:56;93937.16;;;10.43;78.22
36192;BME280;22233;42.708;23.360;2023-04-04T03:13:21;93948.81;;;10.59;78.23
36192;BME280;22233;42.708;23.360;2023-04-04T03:15:47;93941.66;;;10.67;77.61
36192;BME280;22233;42.708;23.360;2023-04-04T03:18:13;93948.03;;;10.74;77.73
36192;BME280;22233;42.708;23.360;2023-04-04T03:20:39;93949.63;;;10.75;77.81
36192;BME280;22233;42.708;23.360;2023-04-04T03:23:04;93954.38;;;10.78;77.86
36192;BME280;22233;42.708;23.360;2023-04-04T03:25:30;93956.19;;;10.90;77.23
36192;BME280;22233;42.708;23.360;2023-04-04T03:27:55;93958.44;;;10.72;77.56
36192;BME280;22233;42.708;23.360;2023-04-04T03:30:20;93948.13;;;11.10;76.44
36192;BME280;22233;42.708;23.360;2023-04-04T03:32:46;93957.00;;;11.07;76.63
36192;BME280;22233;42.708;23.360;2023-04-04T03:35:11;93950.75;;;11.06;76.37
36192;BME280;22233;42.708;23.360;2023-04-04T03:37:37;93938.91;;;10.98;76.38
36192;BME280;22233;42.708;23.360;2023-04-04T03:40:02;93943.13;;;11.12;76.68
36192;BME280;22233;42.708;23.360;2023-04-04T03:42:32;93944.44;;;11.18;77.02
36192;BME280;22233;42.708;23.360;2023-04-04T03:44:58;93938.91;;;11.14;76.77
36192;BME280;22233;42.708;23.360;2023-04-04T03:47:24;93937.88;;;11.19;76.50
36192;BME280;22233;42.708;23.360;2023-04-04T03:49:50;93940.59;;;11.19;75.79
36192;BME280;22233;42.708;23.360;2023-04-04T03:52:16;93953.38;;;11.18;76.08
36192;BME280;22233;42.708;23.360;2023-04-04T03:54:43;93942.59;;;11.22;76.40
36192;BME280;22233;42.708;23.360;2023-04-04T03:57:08;93938.13;;;11.30;76.14
36192;BME280;22233;42.708;23.360;2023-04-04T03:59:34;93944.63;;;11.09;76.55
36192;BME280;22233;42.708;23.360;2023-04-04T04:01:59;93944.19;;;10.91;76.75
36192;BME280;22233;42.708;23.360;2023-04-04T04:04:25;93947.44;;;10.97;77.22
36192;BME280;22233;42.708;23.360;2023-04-04T04:06:50;93949.63;;;10.75;78.40
36192;BME280;22233;42.708;23.360;2023-04-04T04:09:16;93946.47;;;11.05;77.07
36192;BME280;22233;42.708;23.360;2023-04-04T04:11:41;93951.81;;;10.86;77.25
36192;BME280;22233;42.708;23.360;2023-04-04T04:14:07;93929.91;;;10.78;78.78
36192;BME280;22233;42.708;23.360;2023-04-04T04:16:32;93949.53;;;10.88;77.70
36192;BME280;22233;42.708;23.360;2023-04-04T04:18:58;93948.31;;;11.01;77.86
36192;BME280;22233;42.708;23.360;2023-04-04T04:21:23;93932.44;;;11.03;77.13
36192;BME280;22233;42.708;23.360;2023-04-04T04:23:50;93943.56;;;11.14;77.43
36192;BME280;22233;42.708;23.360;2023-04-04T04:26:15;93945.84;;;11.12;77.42
36192;BME280;22233;42.708;23.360;2023-04-04T04:28:41;93959.88;;;11.30;76.40
36192;BME280;22233;42.708;23.360;2023-04-04T04:31:08;93953.38;;;11.18;76.46
36192;BME280;22233;42.708;23.360;2023-04-04T04:33:33;93972.16;;;11.08;77.05
36192;BME280;22233;42.708;23.360;2023-04-04T04:35:59;93970.50;;;11.03;77.62
36192;BME280;22233;42.708;23.360;2023-04-04T04:38:26;93966.63;;;11.04;77.32
36192;BME280;22233;42.708;23.360;2023-04-04T04:40:53;93977.25;;;11.09;77.40
36192;BME280;22233;42.708;23.360;2023-04-04T04:43:18;93979.78;;;11.18;77.74
36192;BME280;22233;42.708;23.360;2023-04-04T04:45:43;93978.91;;;11.14;76.36
36192;BME280;22233;42.708;23.360;2023-04-04T04:48:09;93979.94;;;11.25;77.36
36192;BME280;22233;42.708;23.360;2023-04-04T04:50:34;93974.97;;;11.11;77.84
36192;BME280;22233;42.708;23.360;2023-04-04T04:53:00;93981.72;;;11.17;77.75
36192;BME280;22233;42.708;23.360;2023-04-04T04:55:25;93986.69;;;11.31;76.93
36192;BME280;22233;42.708;23.360;2023-04-04T04:57:51;93991.84;;;11.20;77.24
36192;BME280;22233;42.708;23.360;2023-04-04T05:00:17;94002.38;;;11.06;77.47
36192;BME280;22233;42.708;23.360;2023-04-04T05:02:43;93987.03;;;10.98;76.74
36192;BME280;22233;42.708;23.360;2023-04-04T05:05:08;94010.81;;;11.01;77.94
36192;BME280;22233;42.708;23.360;2023-04-04T05:07:34;94001.41;;;10.83;77.43
36192;BME280;22233;42.708;23.360;2023-04-04T05:09:59;94009.38;;;10.75;78.35
36192;BME280;22233;42.708;23.360;2023-04-04T05:12:26;94015.16;;;10.46;78.56
36192;BME280;22233;42.708;23.360;2023-04-04T05:14:51;94014.66;;;10.56;78.96
36192;BME280;22233;42.708;23.360;2023-04-04T05:17:18;94010.69;;;10.82;78.34
36192;BME280;22233;42.708;23.360;2023-04-04T05:19:43;94012.66;;;10.97;78.24
36192;BME280;22233;42.708;23.360;2023-04-04T05:22:08;94015.63;;;11.24;76.30
36192;BME280;22233;42.708;23.360;2023-04-04T05:24:34;94015.09;;;11.34;76.33
36192;BME280;22233;42.708;23.360;2023-04-04T05:26:59;94015.19;;;11.37;76.37
36192;BME280;22233;42.708;23.360;2023-04-04T05:29:25;94029.38;;;11.47;76.23
36192;BME280;22233;42.708;23.360;2023-04-04T05:31:50;94010.28;;;11.27;75.64
36192;BME280;22233;42.708;23.360;2023-04-04T05:34:15;94026.69;;;11.31;75.98
36192;BME280;22233;42.708;23.360;2023-04-04T05:36:41;94026.84;;;11.38;75.94
36192;BME280;22233;42.708;23.360;2023-04-04T05:39:06;94038.00;;;11.17;76.30
36192;BME280;22233;42.708;23.360;2023-04-04T05:41:32;94017.97;;;10.77;76.65
36192;BME280;22233;42.708;23.360;2023-04-04T05:43:58;94035.31;;;10.73;77.12
36192;BME280;22233;42.708;23.360;2023-04-04T05:46:23;94044.84;;;10.67;77.93
36192;BME280;22233;42.708;23.360;2023-04-04T05:48:49;94032.88;;;10.55;78.47
36192;BME280;22233;42.708;23.360;2023-04-04T05:51:15;94039.09;;;10.15;79.54
36192;BME280;22233;42.708;23.360;2023-04-04T05:53:41;94032.59;;;10.45;78.33
36192;BME280;22233;42.708;23.360;2023-04-04T05:56:06;94022.88;;;10.44;79.21
36192;BME280;22233;42.708;23.360;2023-04-04T05:58:32;94026.78;;;10.74;77.91
36192;BME280;22233;42.708;23.360;2023-04-04T06:00:57;94021.22;;;10.83;77.38
36192;BME280;22233;42.708;23.360;2023-04-04T06:03:23;94040.19;;;10.67;78.98
36192;BME280;22233;42.708;23.360;2023-04-04T06:05:52;94046.44;;;10.84;77.25
36192;BME280;22233;42.708;23.360;2023-04-04T06:08:17;94031.84;;;10.60;77.70
36192;BME280;22233;42.708;23.360;2023-04-04T06:10:43;94055.34;;;10.68;77.81
36192;BME280;22233;42.708;23.360;2023-04-04T06:13:08;94021.25;;;10.55;77.69
36192;BME280;22233;42.708;23.360;2023-04-04T06:15:34;94049.72;;;10.61;78.73
36192;BME280;22233;42.708;23.360;2023-04-04T06:17:59;94053.28;;;10.77;78.67
36192;BME280;22233;42.708;23.360;2023-04-04T06:20:25;94052.38;;;10.73;79.36
36192;BME280;22233;42.708;23.360;2023-04-04T06:22:50;94057.22;;;10.80;77.80
36192;BME280;22233;42.708;23.360;2023-04-04T06:25:16;94051.28;;;10.90;78.09
36192;BME280;22233;42.708;23.360;2023-04-04T06:27:42;94062.53;;;10.76;78.27
36192;BME280;22233;42.708;23.360;2023-04-04T06:30:08;94064.88;;;10.62;78.24
36192;BME280;22233;42.708;23.360;2023-04-04T06:32:33;94071.53;;;10.36;80.84
36192;BME280;22233;42.708;23.360;2023-04-04T06:34:59;94073.66;;;9.90;79.14
36192;BME280;22233;42.708;23.360;2023-04-04T06:37:24;94070.47;;;9.39;77.53
36192;BME280;22233;42.708;23.360;2023-04-04T06:39:49;94082.22;;;9.55;76.52
36192;BME280;22233;42.708;23.360;2023-04-04T06:42:15;94099.31;;;8.98;75.90
36192;BME280;22233;42.708;23.360;2023-04-04T06:44:41;94089.66;;;8.13;76.61
36192;BME280;22233;42.708;23.360;2023-04-04T06:47:06;94104.88;;;7.75;77.76
36192;BME280;22233;42.708;23.360;2023-04-04T06:49:32;94099.50;;;7.67;77.75
36192;BME280;22233;42.708;23.360;2023-04-04T06:51:58;94106.56;;;7.89;76.47
36192;BME280;22233;42.708;23.360;2023-04-04T06:54:24;94107.47;;;7.63;77.09
36192;BME280;22233;42.708;23.360;2023-04-04T06:56:50;94119.81;;;7.43;75.34
36192;BME280;22233;42.708;23.360;2023-04-04T06:59:17;94138.03;;;7.08;75.59
36192;BME280;22233;42.708;23.360;2023-04-04T07:01:43;94139.97;;;6.90;76.09
36192;BME280;22233;42.708;23.360;2023-04-04T07:04:08;94146.97;;;6.82;76.25
36192;BME280;22233;42.708;23.360;2023-04-04T07:06:34;94143.66;;;6.59;78.45
36192;BME280;22233;42.708;23.360;2023-04-04T07:08:59;94147.47;;;6.67;76.99
36192;BME280;22233;42.708;23.360;2023-04-04T07:11:24;94180.47;;;6.55;77.17
36192;BME280;22233;42.708;23.360;2023-04-04T07:13:51;94166.19;;;6.37;77.00
36192;BME280;22233;42.708;23.360;2023-04-04T07:16:16;94176.63;;;6.21;76.57
36192;BME280;22233;42.708;23.360;2023-04-04T07:18:42;94176.81;;;6.25;76.47
36192;BME280;22233;42.708;23.360;2023-04-04T07:21:08;94176.47;;;6.09;76.77
36192;BME280;22233;42.708;23.360;2023-04-04T07:23:33;94195.22;;;5.74;78.47
36192;BME280;22233;42.708;23.360;2023-04-04T07:26:00;94191.56;;;5.78;77.72
36192;BME280;22233;42.708;23.360;2023-04-04T07:28:25;94202.72;;;5.86;77.95
36192;BME280;22233;42.708;23.360;2023-04-04T07:30:51;94199.47;;;5.66;77.45
36192;BME280;22233;42.708;23.360;2023-04-04T07:33:16;94212.53;;;5.90;76.86
36192;BME280;22233;42.708;23.360;2023-04-04T07:35:41;94197.94;;;5.91;75.69
36192;BME280;22233;42.708;23.360;2023-04-04T07:38:07;94203.03;;;5.93;76.06
36192;BME280;22233;42.708;23.360;2023-04-04T07:40:34;94209.94;;;6.16;75.00
36192;BME280;22233;42.708;23.360;2023-04-04T07:42:59;94207.38;;;6.03;74.60
36192;BME280;22233;42.708;23.360;2023-04-04T07:45:25;94209.16;;;5.76;75.64
36192;BME280;22233;42.708;23.360;2023-04-04T07:47:51;94198.31;;;5.58;74.61
36192;BME280;22233;42.708;23.360;2023-04-04T07:50:16;94234.09;;;5.82;74.72
36192;BME280;22233;42.708;23.360;2023-04-04T07:52:50;94240.06;;;5.70;74.59
36192;BME280;22233;42.708;23.360;2023-04-04T07:55:17;94239.09;;;5.66;74.94
36192;BME280;22233;42.708;23.360;2023-04-04T07:57:43;94227.56;;;5.74;73.53
36192;BME280;22233;42.708;23.360;2023-04-04T08:00:09;94239.25;;;5.38;74.29
36192;BME280;22233;42.708;23.360;2023-04-04T08:02:38;94251.88;;;5.29;74.24
36192;BME280;22233;42.708;23.360;2023-04-04T08:05:04;94276.00;;;5.11;74.52
36192;BME280;22233;42.708;23.360;2023-04-04T08:07:30;94244.16;;;4.91;75.30
36192;BME280;22233;42.708;23.360;2023-04-04T08:09:55;94251.75;;;4.89;75.43
36192;BME280;22233;42.708;23.360;2023-04-04T08:12:21;94262.78;;;5.24;74.52
36192;BME280;22233;42.708;23.360;2023-04-04T08:14:47;94258.25;;;5.10;73.99
36192;BME280;22233;42.708;23.360;2023-04-04T08:17:12;94256.16;;;4.85;74.65
36192;BME280;22233;42.708;23.360;2023-04-04T08:19:38;94276.84;;;4.98;74.63
36192;BME280;22233;42.708;23.360;2023-04-04T08:22:04;94265.34;;;5.06;74.51
36192;BME280;22233;42.708;23.360;2023-04-04T08:24:29;94275.31;;;5.28;74.72
36192;BME280;22233;42.708;23.360;2023-04-04T08:26:55;94292.78;;;4.72;76.02
36192;BME280;22233;42.708;23.360;2023-04-04T08:29:20;94298.56;;;5.02;75.43
36192;BME280;22233;42.708;23.360;2023-04-04T08:31:46;94290.50;;;5.02;74.45
36192;BME280;22233;42.708;23.360;2023-04-04T08:34:11;94294.16;;;5.06;75.28
36192;BME280;22233;42.708;23.360;2023-04-04T08:36:37;94284.91;;;4.98;75.81
36192;BME280;22233;42.708;23.360;2023-04-04T08:39:03;94305.16;;;4.95;73.96
36192;BME280;22233;42.708;23.360;2023-04-04T08:41:29;94308.81;;;4.77;74.95
36192;BME280;22233;42.708;23.360;2023-04-04T08:43:56;94295.28;;;4.54;75.04
36192;BME280;22233;42.708;23.360;2023-04-04T08:46:26;94312.25;;;4.55;74.74
36192;BME280;22233;42.708;23.360;2023-04-04T08:48:52;94312.91;;;4.60;75.14
36192;BME280;22233;42.708;23.360;2023-04-04T08:51:21;94289.19;;;4.63;74.28
36192;BME280;22233;42.708;23.360;2023-04-04T08:53:49;94313.22;;;4.59;74.02
36192;BME280;22233;42.708;23.360;2023-04-04T08:56:15;94309.78;;;4.81;74.24
36192;BME280;22233;42.708;23.360;2023-04-04T08:58:40;94315.78;;;4.78;74.55
36192;BME280;22233;42.708;23.360;2023-04-04T09:01:06;94316.06;;;4.76;74.15
36192;BME280;22233;42.708;23.360;2023-04-04T09:03:33;94341.75;;;4.83;73.54
36192;BME280;22233;42.708;23.360;2023-04-04T09:06:00;94339.13;;;4.55;74.22
36192;BME280;22233;42.708;23.360;2023-04-04T09:08:27;94336.09;;;4.70;73.06
36192;BME280;22233;42.708;23.360;2023-04-04T09:10:53;94338.31;;;4.68;74.22
36192;BME280;22233;42.708;23.360;2023-04-04T09:13:19;94329.53;;;4.63;74.14
36192;BME280;22233;42.708;23.360;2023-04-04T09:15:54;94326.56;;;4.64;74.96
36192;BME280;22233;42.708;23.360;2023-04-04T09:18:21;94340.91;;;4.73;74.48
36192;BME280;22233;42.708;23.360;2023-04-04T09:20:47;94354.34;;;4.73;73.89
36192;BME280;22233;42.708;23.360;2023-04-04T09:23:14;94337.16;;;4.47;74.42
36192;BME280;22233;42.708;23.360;2023-04-04T09:25:53;94366.69;;;4.60;74.19
36192;BME280;22233;42.708;23.360;2023-04-04T09:28:20;94353.78;;;4.49;74.75
36192;BME280;22233;42.708;23.360;2023-04-04T09:30:50;94342.34;;;4.43;74.33
36192;BME280;22233;42.708;23.360;2023-04-04T09:33:17;94356.56;;;4.16;75.04
36192;BME280;22233;42.708;23.360;2023-04-04T09:35:48;94351.97;;;4.30;74.95
36192;BME280;22233;42.708;23.360;2023-04-04T09:38:16;94332.69;;;4.00;75.64
36192;BME280;22233;42.708;23.360;2023-04-04T09:40:42;94344.44;;;4.05;76.37
36192;BME280;22233;42.708;23.360;2023-04-04T09:43:11;94341.22;;;4.16;75.38
36192;BME280;22233;42.708;23.360;2023-04-04T09:45:43;94345.50;;;4.17;74.95
36192;BME280;22233;42.708;23.360;2023-04-04T09:48:09;94359.97;;;4.49;74.69
36192;BME280;22233;42.708;23.360;2023-04-04T09:50:36;94348.91;;;4.37;76.65
36192;BME280;22233;42.708;23.360;2023-04-04T09:53:03;94355.28;;;4.41;75.79
36192;BME280;22233;42.708;23.360;2023-04-04T09:55:32;94368.81;;;4.64;75.96
36192;BME280;22233;42.708;23.360;2023-04-04T09:57:58;94357.94;;;4.69;74.13
36192;BME280;22233;42.708;23.360;2023-04-04T10:00:27;94349.06;;;4.54;75.30
36192;BME280;22233;42.708;23.360;2023-04-04T10:02:54;94373.50;;;4.44;75.47
36192;BME280;22233;42.708;23.360;2023-04-04T10:05:22;94348.91;;;4.51;74.73
36192;BME280;22233;42.708;23.360;2023-04-04T10:07:48;94356.56;;;4.57;74.60
36192;BME280;22233;42.708;23.360;2023-04-04T10:10:13;94367.72;;;4.37;73.98
36192;BME280;22233;42.708;23.360;2023-04-04T10:12:39;94363.72;;;4.48;74.34
36192;BME280;22233;42.708;23.360;2023-04-04T10:15:05;94374.09;;;4.55;75.11
36192;BME280;22233;42.708;23.360;2023-04-04T10:17:38;94372.66;;;4.85;74.47
36192;BME280;22233;42.708;23.360;2023-04-04T10:20:07;94388.41;;;4.92;73.83
36192;BME280;22233;42.708;23.360;2023-04-04T10:22:35;94372.84;;;4.89;74.64
36192;BME280;22233;42.708;23.360;2023-04-04T10:25:01;94377.88;;;4.68;75.03
36192;BME280;22233;42.708;23.360;2023-04-04T10:27:26;94386.00;;;4.90;74.30
36192;BME280;22233;42.708;23.360;2023-04-04T10:29:52;94382.47;;;4.67;73.65
36192;BME280;22233;42.708;23.360;2023-04-04T10:35:16;94389.31;;;4.73;74.13
36192;BME280;22233;42.708;23.360;2023-04-04T10:37:57;94389.41;;;4.68;73.13
36192;BME280;22233;42.708;23.360;2023-04-04T10:40:25;94387.63;;;4.36;74.53
36192;BME280;22233;42.708;23.360;2023-04-04T10:42:54;94392.72;;;4.37;73.37
36192;BME280;22233;42.708;23.360;2023-04-04T10:45:21;94387.63;;;4.64;73.55
36192;BME280;22233;42.708;23.360;2023-04-04T10:47:46;94400.59;;;4.75;74.50
36192;BME280;22233;42.708;23.360;2023-04-04T10:50:12;94392.06;;;4.96;73.05
36192;BME280;22233;42.708;23.360;2023-04-04T10:52:39;94404.25;;;4.93;73.75
36192;BME280;22233;42.708;23.360;2023-04-04T10:55:08;94410.81;;;5.01;72.40
36192;BME280;22233;42.708;23.360;2023-04-04T10:57:40;94414.16;;;5.20;71.63
36192;BME280;22233;42.708;23.360;2023-04-04T11:02:57;94419.69;;;4.88;73.00
36192;BME280;22233;42.708;23.360;2023-04-04T11:05:31;94407.56;;;4.49;74.17
36192;BME280;22233;42.708;23.360;2023-04-04T11:08:05;94407.88;;;4.75;73.80
36192;BME280;22233;42.708;23.360;2023-04-04T11:10:34;94417.59;;;4.71;73.73
36192;BME280;22233;42.708;23.360;2023-04-04T11:13:16;94430.56;;;4.69;72.57
36192;BME280;22233;42.708;23.360;2023-04-04T11:15:58;94435.94;;;4.69;72.60
36192;BME280;22233;42.708;23.360;2023-04-04T11:21:19;94433.94;;;4.33;72.93
36192;BME280;22233;42.708;23.360;2023-04-04T11:28:50;94431.47;;;4.50;73.15
36192;BME280;22233;42.708;23.360;2023-04-04T11:39:32;94461.13;;;4.31;73.69
36192;BME280;22233;42.708;23.360;2023-04-04T11:42:06;94457.16;;;4.43;72.71
36192;BME280;22233;42.708;23.360;2023-04-04T11:47:18;94451.47;;;4.30;73.98
36192;BME280;22233;42.708;23.360;2023-04-04T11:49:45;94440.75;;;3.97;74.00
36192;BME280;22233;42.708;23.360;2023-04-04T11:52:13;94440.06;;;4.06;73.41
36192;BME280;22233;42.708;23.360;2023-04-04T11:54:39;94459.63;;;4.25;73.29
36192;BME280;22233;42.708;23.360;2023-04-04T11:57:05;94431.97;;;3.92;74.41
36192;BME280;22233;42.708;23.360;2023-04-04T11:59:31;94444.88;;;4.36;72.85
36192;BME280;22233;42.708;23.360;2023-04-04T12:01:58;94453.09;;;4.12;74.12
36192;BME280;22233;42.708;23.360;2023-04-04T12:04:24;94455.78;;;4.45;72.70
36192;BME280;22233;42.708;23.360;2023-04-04T12:06:54;94467.34;;;4.59;71.89
36192;BME280;22233;42.708;23.360;2023-04-04T12:09:23;94457.34;;;4.32;71.45
36192;BME280;22233;42.708;23.360;2023-04-04T12:11:50;94451.53;;;4.11;72.77
36192;BME280;22233;42.708;23.360;2023-04-04T12:14:16;94462.22;;;4.30;72.05
36192;BME280;22233;42.708;23.360;2023-04-04T12:16:43;94447.88;;;3.88;72.51
36192;BME280;22233;42.708;23.360;2023-04-04T12:19:09;94446.28;;;3.87;72.76
36192;BME280;22233;42.708;23.360;2023-04-04T12:21:35;94450.72;;;3.78;73.83
36192;BME280;22233;42.708;23.360;2023-04-04T12:24:01;94456.69;;;3.75;73.60
36192;BME280;22233;42.708;23.360;2023-04-04T12:26:26;94467.72;;;4.06;72.08
36192;BME280;22233;42.708;23.360;2023-04-04T12:28:57;94471.75;;;3.90;73.18
36192;BME280;22233;42.708;23.360;2023-04-04T12:31:24;94470.97;;;3.89;72.70
36192;BME280;22233;42.708;23.360;2023-04-04T12:33:50;94470.50;;;3.68;74.05
36192;BME280;22233;42.708;23.360;2023-04-04T12:36:19;94469.97;;;3.66;72.59
36192;BME280;22233;42.708;23.360;2023-04-04T12:39:08;94458.50;;;3.79;72.76
36192;BME280;22233;42.708;23.360;2023-04-04T12:41:46;94461.28;;;3.74;73.00
36192;BME280;22233;42.708;23.360;2023-04-04T12:44:29;94441.50;;;3.84;72.68
36192;BME280;22233;42.708;23.360;2023-04-04T12:46:59;94469.69;;;3.68;72.66
36192;BME280;22233;42.708;23.360;2023-04-04T12:49:29;94471.09;;;3.98;72.54
36192;BME280;22233;42.708;23.360;2023-04-04T12:51:55;94473.19;;;3.68;73.03
36192;BME280;22233;42.708;23.360;2023-04-04T12:54:26;94471.59;;;3.67;72.84
36192;BME280;22233;42.708;23.360;2023-04-04T12:56:58;94490.44;;;3.62;73.64
36192;BME280;22233;42.708;23.360;2023-04-04T12:59:33;94463.03;;;3.65;72.38
36192;BME280;22233;42.708;23.360;2023-04-04T13:02:10;94489.69;;;3.43;72.81
36192;BME280;22233;42.708;23.360;2023-04-04T13:04:36;94472.91;;;3.13;73.45
36192;BME280;22233;42.708;23.360;2023-04-04T13:07:02;94478.78;;;3.34;72.99
36192;BME280;22233;42.708;23.360;2023-04-04T13:09:28;94484.97;;;3.34;73.93
36192;BME280;22233;42.708;23.360;2023-04-04T13:14:20;94497.06;;;3.70;72.65
36192;BME280;22233;42.708;23.360;2023-04-04T13:17:00;94507.22;;;3.73;72.35
36192;BME280;22233;42.708;23.360;2023-04-04T13:19:26;94497.44;;;3.63;71.54
36192;BME280;22233;42.708;23.360;2023-04-04T13:21:51;94475.50;;;3.56;71.21